createdAt,value
2023-04-14T00:02:31.475Z,7.79
2023-04-14T00:05:35.685Z,7.85
2023-04-14T00:08:38.924Z,7.86
2023-04-14T00:11:41.733Z,7.87
2023-04-14T00:14:44.741Z,7.86
2023-04-14T00:17:49.843Z,7.89
2023-04-14T00:20:54.349Z,7.77
2023-04-14T00:23:57.680Z,7.76
2023-04-14T00:27:01.232Z,7.71
2023-04-14T00:30:04.341Z,7.65
2023-04-14T00:33:08.609Z,7.59
2023-04-14T00:36:11.938Z,7.53
2023-04-14T00:39:17.881Z,7.50
2023-04-14T00:42:20.815Z,7.47
2023-04-14T00:45:25.355Z,7.41
2023-04-14T00:48:30.684Z,7.37
2023-04-14T00:51:33.929Z,7.28
2023-04-14T00:54:38.992Z,7.31
2023-04-14T00:57:41.778Z,7.27
2023-04-14T01:00:44.582Z,7.27
2023-04-14T01:03:49.254Z,7.21
2023-04-14T01:06:52.865Z,7.16
2023-04-14T01:09:57.382Z,7.10
2023-04-14T01:13:17.196Z,6.99
2023-04-14T01:16:27.339Z,6.93
2023-04-14T01:19:54.680Z,6.87
2023-04-14T01:23:03.022Z,6.77
2023-04-14T01:26:27.772Z,6.76
2023-04-14T01:30:01.424Z,6.66
2023-04-14T01:33:09.162Z,6.53
2023-04-14T01:36:21.323Z,6.48
2023-04-14T01:39:27.526Z,6.42
2023-04-14T01:42:35.008Z,6.42
2023-04-14T01:45:40.549Z,6.39
2023-04-14T01:48:46.358Z,6.30
2023-04-14T01:51:50.071Z,6.25
2023-04-14T01:54:55.216Z,6.16
2023-04-14T01:57:59.677Z,6.17
2023-04-14T02:01:02.970Z,6.14
2023-04-14T02:04:09.592Z,6.12
2023-04-14T02:07:13.585Z,6.08
2023-04-14T02:10:19.241Z,5.88
2023-04-14T02:13:23.777Z,5.93
2023-04-14T02:16:27.626Z,5.93
2023-04-14T02:19:33.866Z,5.81
2023-04-14T02:22:37.276Z,5.80
2023-04-14T02:25:42.830Z,5.73
2023-04-14T02:28:51.709Z,5.73
2023-04-14T02:32:00.685Z,5.70
2023-04-14T02:35:12.122Z,5.68
2023-04-14T02:38:20.984Z,5.74
2023-04-14T02:41:26.553Z,5.72
2023-04-14T02:44:33.765Z,5.67
2023-04-14T02:47:41.227Z,5.65
2023-04-14T02:50:48.797Z,5.63
2023-04-14T02:53:51.866Z,5.63
2023-04-14T02:56:56.918Z,5.53
2023-04-14T03:00:00.629Z,5.53
2023-04-14T03:03:05.310Z,5.57
2023-04-14T03:06:10.809Z,5.55
2023-04-14T03:09:14.309Z,5.53
2023-04-14T03:12:18.974Z,5.55
2023-04-14T03:15:23.071Z,5.53
2023-04-14T03:18:27.256Z,5.59
2023-04-14T03:21:33.678Z,5.57
2023-04-14T03:24:38.714Z,5.54
2023-04-14T03:27:43.178Z,5.50
2023-04-14T03:30:50.471Z,5.40
2023-04-14T03:33:58.785Z,5.39
2023-04-14T03:37:05.474Z,5.42
2023-04-14T03:40:11.250Z,5.41
2023-04-14T03:43:20.054Z,5.35
2023-04-14T03:46:24.029Z,5.32
2023-04-14T03:49:28.863Z,5.28
2023-04-14T03:52:36.415Z,5.24
2023-04-14T03:55:42.283Z,5.19
2023-04-14T03:58:47.748Z,5.13
2023-04-14T04:01:51.467Z,5.07
2023-04-14T04:04:57.035Z,5.08
2023-04-14T04:08:03.686Z,5.04
2023-04-14T04:11:08.471Z,5.02
2023-04-14T04:14:13.884Z,5.00
2023-04-14T04:17:20.657Z,5.03
2023-04-14T04:20:25.059Z,5.02
2023-04-14T04:23:33.228Z,4.99
2023-04-14T04:26:36.553Z,4.90
2023-04-14T04:29:40.467Z,4.85
2023-04-14T04:32:43.273Z,4.81
2023-04-14T04:35:47.869Z,4.81
2023-04-14T04:38:52.142Z,4.83
2023-04-14T04:42:03.149Z,4.86
2023-04-14T04:45:07.180Z,4.78
2023-04-14T04:48:10.244Z,4.79
2023-04-14T04:51:13.382Z,4.72
2023-04-14T04:54:17.927Z,4.66
2023-04-14T04:57:21.048Z,4.64
2023-04-14T05:00:26.034Z,4.67
2023-04-14T05:03:28.711Z,4.68
2023-04-14T05:06:31.542Z,4.68
2023-04-14T05:09:35.546Z,4.66
2023-04-14T05:12:38.256Z,4.57
2023-04-14T05:15:40.881Z,4.59
2023-04-14T05:18:44.021Z,4.63
2023-04-14T05:21:46.641Z,4.53
2023-04-14T05:24:51.579Z,4.73
2023-04-14T05:27:54.182Z,5.11
2023-04-14T05:30:58.863Z,5.30
2023-04-14T05:34:03.568Z,5.38
2023-04-14T05:37:06.458Z,5.35
2023-04-14T05:40:11.676Z,5.34
2023-04-14T05:43:14.399Z,5.33
2023-04-14T05:46:17.156Z,5.35
2023-04-14T05:49:19.848Z,5.47
2023-04-14T05:52:22.508Z,5.62
2023-04-14T05:55:27.031Z,5.77
2023-04-14T05:58:29.709Z,5.92
2023-04-14T06:01:32.360Z,5.95
2023-04-14T06:04:35.161Z,6.10
2023-04-14T06:07:38.375Z,6.20
2023-04-14T06:10:42.327Z,6.30
2023-04-14T06:13:44.950Z,6.37
2023-04-14T06:16:47.607Z,6.43
2023-04-14T06:19:50.483Z,6.49
2023-04-14T06:22:53.960Z,6.60
2023-04-14T06:25:58.627Z,6.93
2023-04-14T06:29:01.613Z,7.29
2023-04-14T06:32:04.536Z,7.64
2023-04-14T06:35:12.084Z,7.97
2023-04-14T06:38:19.172Z,8.36
2023-04-14T06:41:23.335Z,8.93
2023-04-14T06:44:26.065Z,9.48
2023-04-14T06:47:29.549Z,10.16
2023-04-14T06:50:32.190Z,10.85
2023-04-14T06:53:34.807Z,11.88
2023-04-14T06:56:39.109Z,12.87
2023-04-14T06:59:41.847Z,14.20
2023-04-14T07:02:44.524Z,14.95
2023-04-14T07:05:47.544Z,14.87
2023-04-14T07:08:50.254Z,14.50
2023-04-14T07:11:54.688Z,13.91
2023-04-14T07:14:57.280Z,13.45
2023-04-14T07:18:00.223Z,13.11
2023-04-14T07:21:03.615Z,12.85
2023-04-14T07:24:06.414Z,12.57
2023-04-14T07:27:15.009Z,12.54
2023-04-14T07:30:18.186Z,12.51
2023-04-14T07:33:22.296Z,12.52
2023-04-14T07:36:25.125Z,12.64
2023-04-14T07:39:27.749Z,12.73
2023-04-14T07:42:31.845Z,12.65
2023-04-14T07:45:34.471Z,12.59
2023-04-14T07:48:39.022Z,12.74
2023-04-14T07:51:41.677Z,12.76
2023-04-14T07:54:45.757Z,12.78
2023-04-14T07:57:50.344Z,12.84
2023-04-14T08:00:52.961Z,12.97
2023-04-14T08:03:55.971Z,13.08
2023-04-14T08:06:58.698Z,13.23
2023-04-14T08:10:01.316Z,13.56
2023-04-14T08:13:05.338Z,13.64
2023-04-14T08:16:09.266Z,13.70
2023-04-14T08:19:12.194Z,13.75
2023-04-14T08:22:14.837Z,13.79
2023-04-14T08:25:17.620Z,13.72
2023-04-14T08:28:21.852Z,13.78
2023-04-14T08:31:26.038Z,13.81
2023-04-14T08:34:29.908Z,13.86
2023-04-14T08:37:32.617Z,13.86
2023-04-14T08:40:38.366Z,14.01
2023-04-14T08:43:42.426Z,13.93
2023-04-14T08:46:46.644Z,13.93
2023-04-14T08:49:57.242Z,14.03
2023-04-14T08:53:03.980Z,14.08
2023-04-14T08:56:09.388Z,14.04
2023-04-14T08:59:13.326Z,14.02
2023-04-14T09:02:16.875Z,14.08
2023-04-14T09:05:20.301Z,14.14
2023-04-14T09:08:23.737Z,14.25
2023-04-14T09:11:26.782Z,14.39
2023-04-14T09:14:30.946Z,14.53
2023-04-14T09:17:33.781Z,14.52
2023-04-14T09:20:41.012Z,14.51
2023-04-14T09:23:44.232Z,14.59
2023-04-14T09:26:54.917Z,14.63
2023-04-14T09:30:03.768Z,14.63
2023-04-14T09:33:09.047Z,14.78
2023-04-14T09:36:20.972Z,15.00
2023-04-14T09:39:30.937Z,15.17
2023-04-14T09:42:55.396Z,15.36
2023-04-14T09:46:10.275Z,15.51
2023-04-14T09:49:16.803Z,15.33
2023-04-14T09:52:24.346Z,15.33
2023-04-14T09:55:34.356Z,15.44
2023-04-14T09:58:41.340Z,15.59
2023-04-14T10:01:50.969Z,15.66
2023-04-14T10:05:05.564Z,15.77
2023-04-14T10:08:11.583Z,15.82
2023-04-14T10:11:20.618Z,15.96
2023-04-14T10:14:27.856Z,15.78
2023-04-14T10:17:35.742Z,15.27
2023-04-14T10:20:44.626Z,14.83
2023-04-14T10:23:50.428Z,14.82
2023-04-14T10:26:57.355Z,15.09
2023-04-14T10:30:06.748Z,15.45
2023-04-14T10:33:15.801Z,15.82
2023-04-14T10:36:28.035Z,15.89
2023-04-14T10:39:37.064Z,15.52
2023-04-14T10:43:00.721Z,15.58
2023-04-14T10:46:07.127Z,15.73
2023-04-14T10:49:13.357Z,15.95
2023-04-14T10:52:34.540Z,15.78
2023-04-14T10:55:52.371Z,15.79
2023-04-14T10:58:56.479Z,16.07
2023-04-14T11:02:00.667Z,16.26
2023-04-14T11:05:08.838Z,16.48
2023-04-14T11:08:16.010Z,16.73
2023-04-14T11:11:18.734Z,17.01
2023-04-14T11:14:27.470Z,17.21
2023-04-14T11:17:33.358Z,17.19
2023-04-14T11:20:41.284Z,17.36
2023-04-14T11:23:45.171Z,17.41
2023-04-14T11:26:48.557Z,17.45
2023-04-14T11:29:52.197Z,17.58
2023-04-14T11:32:57.972Z,17.59
2023-04-14T11:36:04.107Z,17.67
2023-04-14T11:39:07.248Z,17.66
2023-04-14T11:42:10.465Z,17.77
2023-04-14T11:45:16.498Z,17.80
2023-04-14T11:48:21.642Z,17.78
2023-04-14T11:51:32.260Z,17.81
2023-04-14T11:54:39.022Z,17.69
2023-04-14T11:57:45.872Z,17.65
2023-04-14T12:00:50.108Z,17.75
2023-04-14T12:03:53.847Z,17.96
2023-04-14T12:06:58.128Z,17.93
2023-04-14T12:10:02.555Z,17.97
2023-04-14T12:13:06.639Z,18.07
2023-04-14T12:16:09.586Z,18.09
2023-04-14T12:19:12.381Z,18.29
2023-04-14T12:22:26.272Z,18.22
2023-04-14T12:25:32.838Z,18.31
2023-04-14T12:28:37.156Z,18.43
2023-04-14T12:31:43.890Z,18.47
2023-04-14T12:34:57.802Z,18.59
2023-04-14T12:38:02.147Z,18.59
2023-04-14T12:41:05.612Z,18.54
2023-04-14T12:44:16.140Z,18.41
2023-04-14T12:47:28.445Z,18.42
2023-04-14T12:50:33.257Z,18.42
2023-04-14T12:53:37.848Z,18.51
2023-04-14T12:56:43.255Z,18.59
2023-04-14T12:59:46.346Z,18.61
2023-04-14T13:02:49.503Z,18.58
2023-04-14T13:05:52.523Z,18.45
2023-04-14T13:08:57.150Z,18.48
2023-04-14T13:12:00.039Z,18.58
2023-04-14T13:15:03.055Z,18.60
2023-04-14T13:18:06.160Z,18.73
2023-04-14T13:21:09.687Z,18.83
2023-04-14T13:24:13.826Z,18.87
2023-04-14T13:27:16.794Z,18.89
2023-04-14T13:30:19.594Z,18.93
2023-04-14T13:33:23.298Z,19.10
2023-04-14T13:36:27.630Z,19.02
2023-04-14T13:39:32.134Z,19.03
2023-04-14T13:42:35.031Z,18.97
2023-04-14T13:45:38.600Z,19.09
2023-04-14T13:48:43.665Z,19.20
2023-04-14T13:51:46.475Z,19.23
2023-04-14T13:54:51.027Z,19.15
2023-04-14T13:57:55.106Z,19.04
2023-04-14T14:00:58.233Z,19.04
2023-04-14T14:04:01.417Z,18.98
2023-04-14T14:07:04.832Z,18.96
2023-04-14T14:10:10.955Z,19.01
2023-04-14T14:13:14.284Z,19.02
2023-04-14T14:16:33.059Z,19.03
2023-04-14T14:19:40.011Z,19.16
2023-04-14T14:22:43.428Z,19.28
2023-04-14T14:25:48.266Z,19.33
2023-04-14T14:28:51.511Z,19.25
2023-04-14T14:31:54.497Z,19.12
2023-04-14T14:34:57.469Z,19.10
2023-04-14T14:38:00.994Z,19.10
2023-04-14T14:41:06.007Z,19.22
2023-04-14T14:44:08.869Z,19.23
2023-04-14T14:47:12.254Z,19.13
2023-04-14T14:50:15.182Z,19.10
2023-04-14T14:53:17.832Z,19.06
2023-04-14T14:56:22.495Z,19.07
2023-04-14T14:59:25.342Z,19.05
2023-04-14T15:02:28.357Z,19.03
2023-04-14T15:05:31.102Z,18.76
2023-04-14T15:08:34.133Z,18.67
2023-04-14T15:11:38.435Z,18.84
2023-04-14T15:14:41.635Z,18.82
2023-04-14T15:17:44.578Z,18.77
2023-04-14T15:20:48.131Z,18.86
2023-04-14T15:23:51.246Z,18.88
2023-04-14T15:26:56.178Z,18.88
2023-04-14T15:29:58.945Z,18.91
2023-04-14T15:33:01.874Z,18.84
2023-04-14T15:36:04.974Z,18.87
2023-04-14T15:39:07.709Z,18.84
2023-04-14T15:42:12.167Z,18.76
2023-04-14T15:45:16.091Z,18.78
2023-04-14T15:48:19.328Z,18.75
2023-04-14T15:51:22.416Z,18.71
2023-04-14T15:54:26.024Z,18.64
2023-04-14T15:57:30.805Z,18.57
2023-04-14T16:00:34.205Z,18.51
2023-04-14T16:03:38.467Z,18.52
2023-04-14T16:06:41.417Z,18.52
2023-04-14T16:09:44.335Z,18.46
2023-04-14T16:12:49.968Z,18.27
2023-04-14T16:15:53.638Z,18.06
2023-04-14T16:18:56.514Z,18.00
2023-04-14T16:21:59.546Z,17.97
2023-04-14T16:25:04.304Z,17.91
2023-04-14T16:28:08.595Z,17.89
2023-04-14T16:31:11.421Z,17.75
2023-04-14T16:34:14.669Z,17.50
2023-04-14T16:37:17.857Z,17.38
2023-04-14T16:40:20.862Z,17.30
2023-04-14T16:43:26.130Z,17.14
2023-04-14T16:46:29.002Z,16.85
2023-04-14T16:49:31.891Z,16.75
2023-04-14T16:52:35.032Z,16.65
2023-04-14T16:55:38.284Z,16.58
2023-04-14T16:58:42.535Z,16.41
2023-04-14T17:01:45.848Z,16.21
2023-04-14T17:04:48.984Z,15.92
2023-04-14T17:07:52.435Z,15.71
2023-04-14T17:10:55.240Z,15.48
2023-04-14T17:13:59.633Z,15.32
2023-04-14T17:17:02.880Z,15.21
2023-04-14T17:20:07.228Z,15.08
2023-04-14T17:23:10.356Z,14.89
2023-04-14T17:26:14.176Z,14.72
2023-04-14T17:29:18.348Z,14.56
2023-04-14T17:32:21.340Z,14.35
2023-04-14T17:35:24.315Z,14.16
2023-04-14T17:38:27.724Z,14.02
2023-04-14T17:41:30.857Z,13.87
2023-04-14T17:44:36.224Z,13.69
2023-04-14T17:47:39.836Z,13.52
2023-04-14T17:50:43.083Z,13.19
2023-04-14T17:53:45.931Z,13.02
2023-04-14T17:56:49.708Z,12.84
2023-04-14T17:59:55.274Z,12.59
2023-04-14T18:02:58.149Z,12.43
2023-04-14T18:06:00.939Z,12.25
2023-04-14T18:09:03.929Z,12.04
2023-04-14T18:12:07.386Z,11.94
2023-04-14T18:15:15.431Z,11.78
2023-04-14T18:18:18.389Z,11.67
2023-04-14T18:21:21.748Z,11.59
2023-04-14T18:30:38.791Z,11.12
2023-04-14T18:33:41.617Z,11.02
2023-04-14T18:36:45.088Z,10.92
2023-04-14T18:39:48.210Z,10.79
2023-04-14T18:42:51.618Z,10.70
2023-04-14T18:45:55.900Z,10.64
2023-04-14T18:48:59.211Z,10.54
2023-04-14T18:52:02.629Z,10.48
2023-04-14T18:55:06.126Z,10.39
2023-04-14T18:58:12.247Z,10.36
2023-04-14T19:01:17.472Z,10.36
2023-04-14T19:04:20.785Z,10.30
2023-04-14T19:07:23.763Z,10.24
2023-04-14T19:10:26.669Z,10.18
2023-04-14T19:13:29.676Z,10.20
2023-04-14T19:16:34.855Z,10.16
2023-04-14T19:19:37.985Z,10.10
2023-04-14T19:22:41.325Z,10.03
2023-04-14T19:25:44.227Z,10.06
2023-04-14T19:28:47.044Z,9.99
2023-04-14T19:31:51.713Z,9.98
2023-04-14T19:34:54.729Z,9.96
2023-04-14T19:37:57.958Z,9.94
2023-04-14T19:41:00.724Z,9.84
2023-04-14T19:44:04.078Z,9.85
2023-04-14T19:47:08.417Z,9.79
2023-04-14T19:50:11.711Z,9.82
2023-04-14T19:53:14.539Z,9.82
2023-04-14T19:56:17.279Z,9.71
2023-04-14T19:59:20.690Z,9.59
2023-04-14T20:02:25.548Z,9.60
2023-04-14T20:05:33.257Z,9.62
2023-04-14T20:08:36.295Z,9.62
2023-04-14T20:11:39.117Z,9.59
2023-04-14T20:14:43.771Z,9.54
2023-04-14T20:17:49.032Z,9.48
2023-04-14T20:20:52.786Z,9.40
2023-04-14T20:23:55.525Z,9.35
2023-04-14T20:26:58.470Z,9.39
2023-04-14T20:30:01.448Z,9.40
2023-04-14T20:33:06.030Z,9.30
2023-04-14T20:36:08.850Z,9.23
2023-04-14T20:39:11.782Z,9.22
2023-04-14T20:42:16.035Z,9.10
2023-04-14T20:45:19.236Z,9.01
2023-04-14T20:48:23.682Z,8.98
2023-04-14T20:51:26.399Z,8.99
2023-04-14T20:54:29.234Z,8.84
2023-04-14T20:57:32.288Z,8.77
2023-04-14T21:00:35.717Z,8.67
2023-04-14T21:03:40.305Z,8.64
2023-04-14T21:06:43.189Z,8.58
2023-04-14T21:09:46.022Z,8.53
2023-04-14T21:15:30.205Z,8.46
2023-04-14T21:16:11.911Z,8.39
2023-04-14T21:19:16.256Z,8.38
2023-04-14T21:22:19.055Z,8.30
2023-04-14T21:25:21.784Z,8.25
2023-04-14T21:28:24.620Z,8.27
2023-04-14T21:31:27.568Z,8.26
2023-04-14T21:34:31.775Z,8.22
2023-04-14T21:37:34.627Z,8.24
2023-04-14T21:40:37.525Z,8.26
2023-04-14T21:43:40.368Z,8.15
2023-04-14T21:46:43.165Z,8.08
2023-04-14T21:49:47.300Z,8.10
2023-04-14T21:52:50.257Z,8.01
2023-04-14T21:55:58.954Z,8.05
2023-04-14T21:59:13.675Z,8.01
2023-04-14T22:02:16.800Z,8.02
2023-04-14T22:05:21.199Z,7.96
2023-04-14T22:08:24.513Z,7.83
2023-04-14T22:11:28.726Z,7.83
2023-04-14T22:14:32.067Z,7.76
2023-04-14T22:17:34.830Z,7.81
2023-04-14T22:20:39.454Z,7.77
2023-04-14T22:23:43.551Z,7.66
2023-04-14T22:26:47.062Z,7.65
2023-04-14T22:29:49.852Z,7.54
2023-04-14T22:32:52.607Z,7.59
2023-04-14T22:35:56.985Z,7.51
2023-04-14T22:38:59.918Z,7.51
2023-04-14T22:42:02.994Z,7.41
2023-04-14T22:45:07.587Z,7.35
2023-04-14T22:48:11.616Z,7.27
2023-04-14T22:51:16.721Z,7.29
2023-04-14T22:54:19.384Z,7.34
2023-04-14T22:57:22.596Z,7.30
2023-04-14T23:00:26.794Z,7.24
2023-04-14T23:03:30.124Z,7.20
2023-04-14T23:06:34.622Z,7.18
2023-04-14T23:09:37.517Z,7.25
2023-04-14T23:12:40.424Z,7.17
2023-04-14T23:15:43.605Z,7.18
2023-04-14T23:18:49.589Z,7.25
2023-04-14T23:21:53.746Z,7.27
2023-04-14T23:24:56.645Z,7.26
2023-04-14T23:27:59.413Z,7.11
2023-04-14T23:31:02.351Z,7.08
2023-04-14T23:34:05.426Z,7.06
2023-04-14T23:37:09.907Z,7.01
2023-04-14T23:40:14.033Z,6.96
2023-04-14T23:43:16.754Z,6.94
2023-04-14T23:46:19.848Z,6.91
2023-04-14T23:49:24.014Z,6.88
2023-04-14T23:52:37.599Z,6.82
2023-04-14T23:55:40.382Z,6.80
2023-04-14T23:58:43.820Z,6.81
